Meteorología y climatología de Navarra
Datos de la estación - Meteo Navarra

Estación de Aoiz GN

Altitud 534 m.


Datos desde el 03/12/2019 hasta el 04/12/2019 en horario solar
Los datos son PROVISIONALES

Anterior Página 1 de 1 Siguiente Descargar: Formato para Excel 2000 o superior   Formato csv   Formato para OpenOffice Calc
Fecha Temperatura Humedad relativa Radiación global Insolación Precipitación Vel. viento 10 m Vel. viento 10 m Dir. viento 10 m
ºC % W/m² s l/m² m/s km/h º
03/12/2019 0:00 3.5 74 0.0 0 0.0 4.0 14.5 297
03/12/2019 0:10 3.3 75 0.0 0 0.0 2.6 9.3 317
03/12/2019 0:20 3.2 76 0.0 0 0.0 3.1 11.1 315
03/12/2019 0:30 3.1 76 0.0 0 0.0 2.3 8.4 314
03/12/2019 0:40 3.1 76 0.0 0 0.0 3.2 11.7 299
03/12/2019 0:50 3.0 77 0.0 0 0.0 3.1 11.1 297
03/12/2019 1:00 2.9 77 0.0 0 0.0 2.4 8.6 310
03/12/2019 1:10 3.0 77 0.0 0 0.0 2.5 9.0 310
03/12/2019 1:20 3.0 76 0.0 0 0.0 2.5 9.0 308
03/12/2019 1:30 2.8 77 0.0 0 0.0 2.8 10.0 303
03/12/2019 1:40 2.8 77 0.0 0 0.0 3.3 11.8 292
03/12/2019 1:50 2.8 76 0.0 0 0.0 2.7 9.6 299
03/12/2019 2:00 2.8 75 0.0 0 0.0 2.3 8.2 299
03/12/2019 2:10 2.8 75 0.0 0 0.0 2.5 8.8 298
03/12/2019 2:20 2.4 77 0.0 0 0.0 1.8 6.6 299
03/12/2019 2:30 2.4 77 0.0 0 0.0 2.0 7.0 301
03/12/2019 2:40 2.7 77 0.0 0 0.0 2.0 7.3 303
03/12/2019 2:50 2.8 76 0.0 0 0.0 2.1 7.4 324
03/12/2019 3:00 2.8 76 0.0 0 0.0 2.6 9.2 327
03/12/2019 3:10 3.0 76 0.0 0 0.0 1.8 6.6 324
03/12/2019 3:20 2.7 77 0.0 0 0.0 1.3 4.7 329
03/12/2019 3:30 2.7 77 0.0 0 0.0 1.3 4.6 335
03/12/2019 3:40 2.7 78 0.0 0 0.0 2.1 7.5 351
03/12/2019 3:50 3.0 79 0.0 0 0.0 2.3 8.3 14
03/12/2019 4:00 3.1 78 0.0 0 0.0 1.7 6.3 355
03/12/2019 4:10 3.1 77 0.0 0 0.0 1.8 6.5 355
03/12/2019 4:20 2.8 78 0.0 0 0.0 0.9 3.4 345
03/12/2019 4:30 2.3 81 0.0 0 0.0 1.4 4.9 355
03/12/2019 4:40 2.2 82 0.0 0 0.0 1.4 5.0 66
03/12/2019 4:50 1.4 85 0.0 0 0.0 1.0 3.5 108
03/12/2019 5:00 1.4 86 0.0 0 0.0 1.1 4.1 186
03/12/2019 5:10 1.3 86 0.0 0 0.0 0.8 2.7 149
03/12/2019 5:20 1.0 86 0.0 0 0.0 0.2 0.8 193
03/12/2019 5:30 0.9 87 0.0 0 0.0 0.4 1.6 265
03/12/2019 5:40 0.6 87 0.0 0 0.0 0.3 1.0 238
03/12/2019 5:50 0.4 89 0.0 0 0.0 0.7 2.3 240
03/12/2019 6:00 0.2 89 0.0 0 0.0 0.9 3.2 279
03/12/2019 6:10 -0.4 90 0.0 0 0.0 0.3 1.0 264
03/12/2019 6:20 -0.7 92 0.0 0 0.0 0.1 0.5 56
03/12/2019 6:30 -0.7 93 0.0 0 0.0 0.1 0.4 49
03/12/2019 6:40 -0.7 93 0.0 0 0.0 0.3 1.1 29
03/12/2019 6:50 -0.9 94 0.0 0 0.0 0.1 0.3 307
03/12/2019 7:00 -0.7 94 0.0 0 0.0 0.7 2.3 294
03/12/2019 7:10 -0.6 94 0.0 0 0.0 0.3 1.0 280
03/12/2019 7:20 -1.2 93 0.0 0 0.0 0.5 1.7 61
03/12/2019 7:30 -0.8 94 0.0 0 0.0 0.2 0.8 60
03/12/2019 7:40 -0.7 94 3.5 0 0.0 0.0 0.1 61
03/12/2019 7:50 -0.8 94 19.1 0 0.0 0.3 1.2 61
03/12/2019 8:00 -0.5 94 24.2 0 0.0 0.4 1.4 263
03/12/2019 8:10 -0.8 94 28.8 0 0.0 0.5 1.8 188
03/12/2019 8:20 -0.8 94 67.8 240 0.0 0.4 1.3 93
03/12/2019 8:30 0.2 94 145.8 600 0.0 0.2 0.8 85
03/12/2019 8:40 1.3 91 167.4 600 0.0 0.4 1.3 65
03/12/2019 8:50 2.1 85 193.0 600 0.0 0.3 1.0 95
03/12/2019 9:00 2.9 80 215.6 600 0.0 0.4 1.5 113
03/12/2019 9:10 3.2 79 256.8 600 0.0 0.5 1.7 117
03/12/2019 9:20 4.0 76 303.8 600 0.0 0.2 0.7 91
03/12/2019 9:30 4.1 77 264.3 534 0.0 1.4 5.0 174
03/12/2019 9:40 4.8 76 322.9 600 0.0 0.9 3.3 129
03/12/2019 9:50 5.1 74 333.7 600 0.0 1.2 4.4 177
03/12/2019 10:00 5.6 74 344.9 600 0.0 1.2 4.2 140
03/12/2019 10:10 6.2 68 408.9 600 0.0 1.7 5.9 37
03/12/2019 10:20 6.6 64 423.9 600 0.0 1.5 5.2 333
03/12/2019 10:30 6.4 64 395.6 588 0.0 1.8 6.4 320
03/12/2019 10:40 6.7 64 417.3 600 0.0 1.5 5.3 357
03/12/2019 10:50 6.7 63 437.9 600 0.0 1.7 5.9 314
03/12/2019 11:00 7.3 62 442.5 600 0.0 1.4 5.0 30
03/12/2019 11:10 7.0 62 462.9 600 0.0 1.8 6.4 48
03/12/2019 11:20 7.4 62 457.0 600 0.0 1.1 4.0 40
03/12/2019 11:30 7.0 62 405.7 512 0.0 1.5 5.5 6
03/12/2019 11:40 7.6 61 511.8 600 0.0 1.2 4.5 25
03/12/2019 11:50 7.6 63 429.8 564 0.0 1.7 6.2 249
03/12/2019 12:00 7.4 65 472.5 600 0.0 3.4 12.2 251
03/12/2019 12:10 7.0 67 466.6 600 0.0 4.6 16.5 235
03/12/2019 12:20 6.9 67 460.1 600 0.0 4.1 14.8 241
03/12/2019 12:30 6.8 67 458.2 600 0.0 4.0 14.4 236
03/12/2019 12:40 6.7 68 442.2 600 0.0 4.1 14.8 232
03/12/2019 12:50 6.6 69 433.3 600 0.0 3.8 13.6 242
03/12/2019 13:00 6.8 68 424.1 600 0.0 3.7 13.2 237
03/12/2019 13:10 6.6 69 412.7 600 0.0 3.8 13.5 234
03/12/2019 13:20 6.7 69 400.1 600 0.0 3.8 13.6 233
03/12/2019 13:30 6.9 69 387.0 600 0.0 3.7 13.3 243
03/12/2019 13:40 6.9 69 372.1 600 0.0 3.8 13.5 250
03/12/2019 13:50 7.0 69 354.9 600 0.0 3.6 12.9 259
03/12/2019 14:00 7.3 68 336.2 600 0.0 2.9 10.5 271
03/12/2019 14:10 7.3 68 317.0 600 0.0 3.6 13.0 269
03/12/2019 14:20 7.0 68 296.8 600 0.0 4.1 14.8 261
03/12/2019 14:30 7.1 68 275.9 600 0.0 3.4 12.3 267
03/12/2019 14:40 6.9 69 254.3 600 0.0 4.0 14.3 266
03/12/2019 14:50 6.8 69 231.0 600 0.0 3.5 12.4 258
03/12/2019 15:00 6.9 69 207.5 600 0.0 3.7 13.4 255
03/12/2019 15:10 6.6 70 184.1 600 0.0 3.4 12.1 260
03/12/2019 15:20 6.8 69 159.0 600 0.0 3.1 11.0 269
03/12/2019 15:30 6.6 70 133.8 600 0.0 3.0 10.8 262
03/12/2019 15:40 6.4 71 108.2 600 0.0 2.8 10.1 265
03/12/2019 15:50 6.2 71 84.5 600 0.0 3.0 10.8 263
03/12/2019 16:00 6.0 73 62.2 600 0.0 2.9 10.4 259
03/12/2019 16:10 5.7 74 41.5 600 0.0 2.5 9.0 263
03/12/2019 16:20 5.4 75 21.4 68 0.0 2.0 7.0 278
03/12/2019 16:30 4.9 77 0.0 0 0.0 1.8 6.4 262
03/12/2019 16:40 4.5 79 0.0 0 0.0 0.5 1.8 270
03/12/2019 16:50 4.1 81 0.0 0 0.0 0.3 1.0 234
03/12/2019 17:00 3.8 81 0.0 0 0.0 0.5 1.9 280
03/12/2019 17:10 3.6 82 0.0 0 0.0 0.3 1.1 353
03/12/2019 17:20 3.1 84 0.0 0 0.0 1.0 3.7 25
03/12/2019 17:30 2.8 86 0.0 0 0.0 0.7 2.5 35
03/12/2019 17:40 2.5 87 0.0 0 0.0 0.3 1.2 41
03/12/2019 17:50 1.9 89 0.0 0 0.0 1.3 4.7 38
03/12/2019 18:00 1.9 90 0.0 0 0.0 1.3 4.8 24
03/12/2019 18:10 2.0 90 0.0 0 0.0 0.1 0.4 13
03/12/2019 18:20 2.1 90 0.0 0 0.0 0.5 1.8 352
03/12/2019 18:30 2.4 91 0.0 0 0.0 0.8 2.8 299
03/12/2019 18:40 2.4 91 0.0 0 0.0 0.2 0.9 2
03/12/2019 18:50 2.0 92 0.0 0 0.0 0.6 2.1 83
03/12/2019 19:00 2.1 93 0.0 0 0.0 0.3 1.0 70
03/12/2019 19:10 2.1 93 0.0 0 0.0 0.4 1.4 62
03/12/2019 19:20 1.7 93 0.0 0 0.0 0.1 0.4 47
03/12/2019 19:30 1.4 93 0.0 0 0.0 0.2 0.6 49
03/12/2019 19:40 1.1 94 0.0 0 0.0 0.7 2.6 278
03/12/2019 19:50 0.9 94 0.0 0 0.0 0.5 1.9 289
03/12/2019 20:00 0.8 94 0.0 0 0.0 0.3 1.2 302
03/12/2019 20:10 1.7 95 0.0 0 0.0 1.3 4.8 16
03/12/2019 20:20 1.6 95 0.0 0 0.0 0.2 0.6 15
03/12/2019 20:30 0.9 94 0.0 0 0.0 0.8 3.0 295
03/12/2019 20:40 0.4 95 0.0 0 0.0 1.0 3.7 278
03/12/2019 20:50 0.6 95 0.0 0 0.0 0.8 2.8 310
03/12/2019 21:00 1.1 96 0.0 0 0.0 2.3 8.3 0
03/12/2019 21:10 1.9 96 0.0 0 0.0 3.2 11.5 19
03/12/2019 21:20 2.0 94 0.0 0 0.0 2.7 9.6 38
03/12/2019 21:30 1.5 93 0.0 0 0.0 0.7 2.7 37
03/12/2019 21:40 0.1 93 0.0 0 0.0 1.3 4.6 270
03/12/2019 21:50 -0.2 95 0.0 0 0.0 0.5 1.8 263
03/12/2019 22:00 -0.1 96 0.0 0 0.0 0.1 0.4 334
03/12/2019 22:10 0.0 96 0.0 0 0.0 0.3 1.0 54
03/12/2019 22:20 0.3 97 0.0 0 0.0 0.9 3.1 51
03/12/2019 22:30 0.6 97 0.0 0 0.0 0.9 3.2 24
03/12/2019 22:40 0.9 97 0.0 0 0.0 1.2 4.4 35
03/12/2019 22:50 0.5 97 0.0 0 0.0 0.7 2.4 319
03/12/2019 23:00 -0.3 97 0.0 0 0.0 0.6 2.0 271
03/12/2019 23:10 -0.1 97 0.0 0 0.0 1.5 5.3 359
03/12/2019 23:20 0.8 97 0.0 0 0.0 1.2 4.3 28
03/12/2019 23:30 0.0 97 0.0 0 0.0 1.0 3.6 31
03/12/2019 23:40 -0.2 97 0.0 0 0.0 0.8 3.0 92
03/12/2019 23:50 -0.4 97 0.0 0 0.0 0.5 1.7 95
Anterior Página 1 de 1 Siguiente

NOTA: Tipo de datos según el color:
   - Valores diarios o 10 minutos correctos
   - Valores diarios calculados a partir de un número de datos 10 minutos menor que 144 y mayor que 120, o de un número de datos semihorarios menor que 48 y mayor que 40 (caso de las estaciones de Riegos de Navarra y del MARM)
   - Valores diez minutos estimados


Contacto        Enlaces        Aviso legal